This is the latest recevied weather packets stored in our database for station/object KG5MMT-15. If no packets are shown the sender has not sent any weather packets the latest 10 day(s).
| Time | Temp. | Humidity | Pressure | Rain* | Wind** | Luminosity | Snow |
|---|---|---|---|---|---|---|---|
| 1777360654 | 12.78° C | 15% | 0 hPa | 0 mm | - | - | - |
| 1777360354 | 13.33° C | 15% | 0 hPa | 0 mm | - | - | - |
| 1777360055 | 12.78° C | 15% | 0 hPa | 0 mm | - | - | - |
| 1777359754 | 13.33° C | 15% | 0 hPa | 0 mm | - | - | - |
| 1777359454 | 12.78° C | 16% | 0 hPa | 0 mm | - | - | - |
| 1777359155 | 13.33° C | 15% | 0 hPa | 0 mm | - | - | - |
| 1777358855 | 13.33° C | 15% | 0 hPa | 0 mm | - | - | - |
| 1777358554 | 13.33° C | 15% | 0 hPa | 0 mm | - | - | - |
| 1777358255 | 13.33° C | 16% | 0 hPa | 0 mm | - | - | - |
| 1777357954 | 12.78° C | 17% | 0 hPa | 0 mm | - | - | - |
| 1777357655 | 12.78° C | 18% | 0 hPa | 0 mm | - | - | - |
| 1777357355 | 12.22° C | 20% | 0 hPa | 0 mm | - | - | - |
| 1777357055 | 11.11° C | 24% | 0 hPa | 0 mm | - | - | - |
| 1777356755 | 9.44° C | 28% | 0 hPa | 0 mm | - | - | - |
| 1777356455 | 7.78° C | 32% | 0 hPa | 0 mm | - | - | - |
| 1777356155 | 6.67° C | 34% | 0 hPa | 0 mm | - | - | - |
| 1777355855 | 6.67° C | 35% | 0 hPa | 0 mm | - | - | - |
| 1777355555 | 6.11° C | 35% | 0 hPa | 0 mm | - | - | - |
| 1777355255 | 5.56° C | 37% | 0 hPa | 0 mm | - | - | - |
| 1777354955 | 5° C | 37% | 0 hPa | 0 mm | - | - | - |
| 1777354655 | 5° C | 38% | 0 hPa | 0 mm | - | - | - |
| 1777354355 | 5° C | 39% | 0 hPa | 0 mm | - | - | - |
| 1777354055 | 5° C | 37% | 0 hPa | 0 mm | - | - | - |
| 1777353755 | 5° C | 37% | 0 hPa | 0 mm | - | - | - |
| 1777353455 | 5° C | 38% | 0 hPa | 0 mm | - | - | - |
* Rain latest hour (hover to see other rain measurements)
** Current wind speed in m/s (hover to see current wind gust speed)